Time;durP1;ratioP1;P1;durP2;ratioP2;P2;SDS_P1;SDS_P2;PMS_P1;PMS_P2;Temp;Humidity;BMP_temperature;BMP_pressure;BME280_temperature;BME280_humidity;BME280_pressure;Samples;Min_cycle;Max_cycle;Signal;HPM_P1;HPM_P2
2023/09/26 00:02:26;;;;;;;9.40;5.95;;;16.50;99.90;;;;;;5072099;28;20431;-52
2023/09/26 00:04:52;;;;;;;9.70;5.47;;;16.40;99.90;;;;;;5072897;28;20033;-52
2023/09/26 00:07:17;;;;;;;12.90;5.90;;;16.40;99.90;;;;;;5072236;28;20124;-52
2023/09/26 00:09:44;;;;;;;7.85;4.93;;;16.40;99.90;;;;;;5072457;28;20024;-50
2023/09/26 00:12:10;;;;;;;9.27;6.07;;;16.40;99.90;;;;;;5074185;28;20420;-52
2023/09/26 00:14:36;;;;;;;9.82;5.85;;;16.40;99.90;;;;;;5072132;28;20040;-50
2023/09/26 00:17:03;;;;;;;7.28;5.22;;;16.30;99.90;;;;;;5065126;28;20028;-46
2023/09/26 00:19:29;;;;;;;10.43;4.97;;;16.30;99.90;;;;;;5070108;28;20037;-51
2023/09/26 00:21:55;;;;;;;10.43;5.68;;;16.20;99.90;;;;;;5070025;28;20036;-50
2023/09/26 00:24:21;;;;;;;11.95;6.07;;;16.20;99.90;;;;;;5069885;28;20031;-51
2023/09/26 00:26:46;;;;;;;12.32;6.53;;;16.10;99.90;;;;;;5071600;28;20508;-53
2023/09/26 00:29:12;;;;;;;10.35;5.95;;;16.10;99.90;;;;;;5060021;28;20067;-52
2023/09/26 00:31:38;;;;;;;7.50;5.03;;;16.10;99.90;;;;;;5068284;28;20753;-51
2023/09/26 00:34:04;;;;;;;10.93;5.63;;;16.00;99.90;;;;;;5067333;28;20032;-52
2023/09/26 00:36:30;;;;;;;11.48;5.80;;;16.00;99.90;;;;;;5067219;28;20078;-51
2023/09/26 00:38:56;;;;;;;8.32;5.65;;;16.10;99.90;;;;;;5066867;28;20052;-52
2023/09/26 00:41:21;;;;;;;8.82;5.68;;;16.00;99.90;;;;;;5068562;28;20024;-51
2023/09/26 00:43:48;;;;;;;9.43;5.50;;;16.00;99.90;;;;;;5073351;28;20489;-52
2023/09/26 00:46:14;;;;;;;11.52;6.95;;;15.90;99.90;;;;;;5070233;28;20473;-52
2023/09/26 00:48:39;;;;;;;11.80;6.43;;;16.00;99.90;;;;;;5062193;28;20020;-50
2023/09/26 00:51:07;;;;;;;7.45;5.68;;;16.00;99.90;;;;;;5071807;28;20029;-38
2023/09/26 00:53:38;;;;;;;11.65;6.43;;;16.00;99.90;;;;;;5071473;28;20481;-37
2023/09/26 00:56:04;;;;;;;9.98;6.15;;;16.00;99.90;;;;;;5072535;28;20505;-40
2023/09/26 00:58:33;;;;;;;10.18;6.35;;;16.00;99.90;;;;;;5067456;28;20036;-43
2023/09/26 01:00:58;;;;;;;9.90;6.28;;;16.00;99.90;;;;;;5072939;28;20579;-39
2023/09/26 01:03:24;;;;;;;8.07;5.63;;;16.00;99.90;;;;;;5072846;28;20025;-38
2023/09/26 01:05:50;;;;;;;11.43;5.97;;;16.00;99.90;;;;;;5068127;28;20520;-38
2023/09/26 01:08:16;;;;;;;9.77;6.47;;;16.10;99.90;;;;;;5066100;28;20062;-38
2023/09/26 01:10:43;;;;;;;12.05;7.20;;;16.10;99.90;;;;;;5073411;28;20039;-39
2023/09/26 01:13:08;;;;;;;12.15;7.03;;;16.10;99.90;;;;;;5072535;28;20028;-38
2023/09/26 01:15:36;;;;;;;9.60;7.15;;;16.20;99.90;;;;;;5073356;28;20028;-39
2023/09/26 01:18:12;;;;;;;;;;;16.20;99.90;;;;;;5073974;28;20478;-39
2023/09/26 01:20:45;;;;;;;9.88;6.30;;;16.20;99.90;;;;;;5067419;28;19919;-41
2023/09/26 01:23:14;;;;;;;10.48;6.80;;;16.30;99.90;;;;;;5060918;28;20519;-38
2023/09/26 01:25:41;;;;;;;11.13;6.88;;;16.30;99.90;;;;;;5071299;28;20059;-38
2023/09/26 01:28:08;;;;;;;9.47;6.57;;;16.30;99.90;;;;;;5071931;28;20040;-39
2023/09/26 01:30:40;;;;;;;12.80;6.90;;;16.30;99.90;;;;;;5071983;28;20099;-40
2023/09/26 01:33:12;;;;;;;16.45;7.07;;;16.40;99.90;;;;;;5071281;28;20405;-40
2023/09/26 01:35:38;;;;;;;14.30;6.75;;;16.40;99.90;;;;;;5069576;28;20032;-42
2023/09/26 01:38:04;;;;;;;10.10;6.47;;;16.40;99.90;;;;;;5068152;28;20038;-39
2023/09/26 01:43:14;;;;;;;8.18;5.32;;;16.40;99.90;;;;;;5066181;28;20055;-38
2023/09/26 01:45:40;;;;;;;10.82;7.07;;;16.40;99.90;;;;;;5072771;28;20028;-38
2023/09/26 01:48:06;;;;;;;10.70;7.20;;;16.40;99.90;;;;;;5072987;28;20025;-37
2023/09/26 01:50:34;;;;;;;10.07;6.35;;;16.40;99.90;;;;;;5072118;28;20515;-40
2023/09/26 01:52:59;;;;;;;10.05;6.60;;;16.40;99.90;;;;;;5066234;28;20086;-37
2023/09/26 01:55:25;;;;;;;7.75;6.07;;;16.40;99.90;;;;;;5071174;28;20032;-38
2023/09/26 01:57:51;;;;;;;6.53;5.38;;;16.40;99.90;;;;;;5071759;28;20176;-38
2023/09/26 02:00:19;;;;;;;8.80;6.63;;;16.40;99.90;;;;;;5071725;28;20076;-38
2023/09/26 02:02:49;;;;;;;12.45;7.75;;;16.50;99.90;;;;;;5071834;28;20060;-38
2023/09/26 02:05:17;;;;;;;7.82;5.53;;;16.50;99.90;;;;;;5069545;28;20048;-38
2023/09/26 02:07:45;;;;;;;9.57;5.40;;;16.50;99.90;;;;;;5066899;28;20016;-39
2023/09/26 02:10:11;;;;;;;7.22;5.18;;;16.50;99.90;;;;;;5069636;28;20024;-38
2023/09/26 02:12:39;;;;;;;10.98;6.88;;;16.50;99.90;;;;;;5072672;28;20025;-40
2023/09/26 02:15:06;;;;;;;10.70;7.00;;;16.50;99.90;;;;;;5072689;28;20060;-41
2023/09/26 02:17:35;;;;;;;9.55;7.22;;;16.60;99.90;;;;;;5071690;28;20051;-37
2023/09/26 02:20:12;;;;;;;10.40;6.78;;;16.60;99.90;;;;;;5071635;28;20020;-41
2023/09/26 02:22:58;;;;;;;13.50;6.70;;;16.60;99.90;;;;;;5055119;28;20020;-38
2023/09/26 02:25:24;;;;;;;11.23;7.38;;;16.60;99.90;;;;;;5070220;28;20119;-39
2023/09/26 02:27:50;;;;;;;9.88;6.88;;;16.70;99.90;;;;;;5071909;28;20044;-37
2023/09/26 02:30:21;;;;;;;10.07;6.95;;;16.70;99.90;;;;;;5071859;28;20538;-38
2023/09/26 02:32:46;;;;;;;13.27;6.43;;;16.70;99.90;;;;;;5072490;28;20025;-39
2023/09/26 02:35:14;;;;;;;11.30;6.65;;;16.60;99.90;;;;;;5071541;28;20523;-39
2023/09/26 02:37:40;;;;;;;12.95;6.88;;;16.60;99.90;;;;;;5072382;28;20021;-38
2023/09/26 02:40:10;;;;;;;9.95;6.70;;;16.50;99.90;;;;;;5069493;28;20513;-38
2023/09/26 02:42:37;;;;;;;7.40;5.70;;;16.50;99.90;;;;;;5069565;28;20098;-40
2023/09/26 02:45:04;;;;;;;9.93;6.05;;;16.50;99.90;;;;;;5068678;28;20074;-37
2023/09/26 02:47:29;;;;;;;20.83;7.70;;;16.50;99.90;;;;;;5072358;28;20028;-37
2023/09/26 02:49:55;;;;;;;18.17;7.90;;;16.60;99.90;;;;;;5070280;28;20025;-38
2023/09/26 02:52:22;;;;;;;10.25;7.72;;;16.60;99.90;;;;;;5071465;28;20504;-39
2023/09/26 02:54:48;;;;;;;13.02;8.38;;;16.70;99.90;;;;;;5065336;28;20025;-40
2023/09/26 02:57:14;;;;;;;9.82;6.93;;;16.60;99.90;;;;;;5072115;28;20042;-38
2023/09/26 02:59:40;;;;;;;12.23;7.88;;;16.60;99.90;;;;;;5070043;28;20086;-40
2023/09/26 03:02:06;;;;;;;9.88;7.25;;;16.60;99.90;;;;;;5071261;28;20032;-40
2023/09/26 03:04:31;;;;;;;12.30;7.57;;;16.50;99.90;;;;;;5072229;28;20488;-39
2023/09/26 03:06:57;;;;;;;12.80;7.60;;;16.50;99.90;;;;;;5068046;28;20029;-38
2023/09/26 03:09:23;;;;;;;12.55;7.60;;;16.40;99.90;;;;;;5067662;28;20460;-39
2023/09/26 03:11:48;;;;;;;13.73;8.30;;;16.40;99.90;;;;;;5075384;28;20027;-39
2023/09/26 03:14:14;;;;;;;12.05;8.00;;;16.40;99.90;;;;;;5074938;28;20066;-41
2023/09/26 03:16:40;;;;;;;13.38;8.75;;;16.30;99.90;;;;;;5075746;28;20056;-39
2023/09/26 03:19:07;;;;;;;14.98;9.10;;;16.30;99.90;;;;;;5073717;28;20036;-41
2023/09/26 03:21:32;;;;;;;14.30;8.90;;;16.20;99.90;;;;;;5059273;28;20142;-39
2023/09/26 03:23:58;;;;;;;13.25;8.23;;;16.20;99.90;;;;;;5064578;28;20060;-40
2023/09/26 03:26:24;;;;;;;11.48;8.13;;;16.20;99.90;;;;;;5075359;28;20021;-40
2023/09/26 03:28:49;;;;;;;13.23;8.10;;;16.20;99.90;;;;;;5074322;28;20099;-38
2023/09/26 03:31:15;;;;;;;11.88;7.40;;;16.10;99.90;;;;;;5075511;28;20020;-41
2023/09/26 03:33:41;;;;;;;11.60;7.75;;;16.10;99.90;;;;;;5074222;28;20485;-41
2023/09/26 03:36:07;;;;;;;14.95;8.15;;;16.10;99.90;;;;;;5072635;28;20032;-38
2023/09/26 03:38:33;;;;;;;15.20;8.73;;;16.10;99.90;;;;;;5065541;28;20377;-41
2023/09/26 03:41:04;;;;;;;12.73;7.50;;;16.20;99.90;;;;;;5074389;28;20031;-38
2023/09/26 03:43:30;;;;;;;12.57;8.88;;;16.10;99.90;;;;;;5074222;28;20058;-39
2023/09/26 03:46:08;;;;;;;15.13;9.05;;;16.10;99.90;;;;;;5074592;28;20499;-38
2023/09/26 03:48:35;;;;;;;14.50;8.50;;;16.00;99.90;;;;;;5071919;28;20082;-38
2023/09/26 03:51:12;;;;;;;10.30;8.23;;;15.90;99.90;;;;;;5072633;28;20444;-38
2023/09/26 03:53:39;;;;;;;8.03;6.10;;;15.90;99.90;;;;;;5073078;28;20434;-38
2023/09/26 03:56:05;;;;;;;12.88;8.30;;;15.80;99.90;;;;;;5072872;28;20384;-39
2023/09/26 03:58:31;;;;;;;13.13;8.43;;;15.80;99.90;;;;;;5073987;28;20104;-37
2023/09/26 04:01:16;;;;;;;14.00;8.93;;;15.80;99.90;;;;;;5075015;28;20032;-40
2023/09/26 04:03:49;;;;;;;13.18;8.68;;;15.80;99.90;;;;;;5074874;28;20035;-38
2023/09/26 04:06:17;;;;;;;10.13;7.78;;;15.80;99.90;;;;;;5071263;28;20053;-37
2023/09/26 04:08:43;;;;;;;11.73;8.20;;;15.70;99.90;;;;;;5073290;28;20023;-37
2023/09/26 04:11:18;;;;;;;13.90;8.05;;;15.70;99.90;;;;;;5071330;28;20024;-38
2023/09/26 04:13:44;;;;;;;12.68;8.52;;;15.70;99.90;;;;;;5073468;28;20028;-38
2023/09/26 04:16:10;;;;;;;13.20;8.45;;;15.80;99.90;;;;;;5071490;28;20033;-39
2023/09/26 04:18:37;;;;;;;16.35;8.30;;;15.70;99.90;;;;;;5074389;28;20107;-39
2023/09/26 04:21:03;;;;;;;11.82;7.60;;;15.70;99.90;;;;;;5074493;28;20028;-39
2023/09/26 04:23:29;;;;;;;13.68;7.70;;;15.70;99.90;;;;;;5073279;28;20024;-40
2023/09/26 04:25:55;;;;;;;17.50;9.20;;;15.70;99.90;;;;;;5073301;28;20021;-39
2023/09/26 04:28:20;;;;;;;8.75;6.75;;;15.70;99.90;;;;;;5073239;28;20024;-38
2023/09/26 04:30:46;;;;;;;11.27;7.30;;;15.70;99.90;;;;;;5074316;28;20074;-40
2023/09/26 04:33:12;;;;;;;11.88;7.00;;;15.70;99.90;;;;;;5073137;28;20021;-37
2023/09/26 04:35:37;;;;;;;11.57;7.32;;;15.70;99.90;;;;;;5072941;28;20111;-38
2023/09/26 04:38:04;;;;;;;11.95;7.78;;;15.60;99.90;;;;;;5072961;28;20462;-40
2023/09/26 04:40:30;;;;;;;10.27;7.35;;;15.70;99.90;;;;;;5073269;28;20548;-38
2023/09/26 04:43:00;;;;;;;13.15;7.32;;;15.60;99.90;;;;;;5073367;28;20020;-40
2023/09/26 04:45:31;;;;;;;13.05;6.75;;;15.60;99.90;;;;;;5071602;28;20029;-39
2023/09/26 04:47:58;;;;;;;13.48;8.32;;;15.60;99.90;;;;;;5074031;28;20052;-39
2023/09/26 04:50:25;;;;;;;9.57;7.72;;;15.50;99.90;;;;;;5073072;28;20027;-38
2023/09/26 04:52:50;;;;;;;14.18;7.35;;;15.50;99.90;;;;;;5069989;28;20017;-41
2023/09/26 04:55:16;;;;;;;8.18;6.82;;;15.50;99.90;;;;;;5073208;28;20035;-38
2023/09/26 04:57:42;;;;;;;12.82;8.18;;;15.50;99.90;;;;;;5073696;28;20103;-38
2023/09/26 05:00:09;;;;;;;10.98;6.90;;;15.50;99.90;;;;;;5073974;28;20044;-41
2023/09/26 05:02:34;;;;;;;12.00;6.80;;;15.50;99.90;;;;;;5072834;28;20021;-38
2023/09/26 05:05:01;;;;;;;9.93;6.57;;;15.50;99.90;;;;;;5071266;28;20401;-38
2023/09/26 05:07:26;;;;;;;12.82;7.13;;;15.50;99.90;;;;;;5067607;28;20552;-39
2023/09/26 05:09:52;;;;;;;9.13;6.20;;;15.50;99.90;;;;;;5070510;28;20104;-37
2023/09/26 05:12:18;;;;;;;9.52;7.03;;;15.40;99.90;;;;;;5073439;28;20028;-40
2023/09/26 05:14:43;;;;;;;14.00;6.55;;;15.40;99.90;;;;;;5073451;28;20021;-40
2023/09/26 05:17:09;;;;;;;10.55;7.50;;;15.40;99.90;;;;;;5072572;28;20016;-39
2023/09/26 05:19:34;;;;;;;12.25;8.02;;;15.30;99.90;;;;;;5070571;28;20481;-38
2023/09/26 05:22:00;;;;;;;13.55;7.78;;;15.30;99.90;;;;;;5065990;28;20063;-39
2023/09/26 05:24:26;;;;;;;10.35;6.70;;;15.30;99.90;;;;;;5071672;28;20452;-42
2023/09/26 05:26:52;;;;;;;13.18;7.90;;;15.30;99.90;;;;;;5063861;28;20028;-41
2023/09/26 05:29:17;;;;;;;10.95;7.28;;;15.30;99.90;;;;;;5073507;28;20028;-38
2023/09/26 05:31:43;;;;;;;11.98;7.50;;;15.40;99.90;;;;;;5073267;28;20016;-40
2023/09/26 05:34:09;;;;;;;14.43;8.57;;;15.40;99.90;;;;;;5073172;28;20476;-39
2023/09/26 05:36:34;;;;;;;14.05;8.25;;;15.40;99.90;;;;;;5068188;28;20120;-40
2023/09/26 05:39:00;;;;;;;11.63;7.45;;;15.40;99.90;;;;;;5072930;28;20023;-40
2023/09/26 05:41:26;;;;;;;11.55;8.25;;;15.40;99.90;;;;;;5072446;28;20028;-41
2023/09/26 05:43:51;;;;;;;13.38;8.60;;;15.40;99.90;;;;;;5072732;28;20476;-43
2023/09/26 05:46:17;;;;;;;12.88;8.25;;;15.40;99.90;;;;;;5070940;28;20107;-39
2023/09/26 05:48:43;;;;;;;10.82;7.72;;;15.40;99.90;;;;;;5071691;28;20029;-42
2023/09/26 05:51:09;;;;;;;14.18;8.18;;;15.50;99.90;;;;;;5070655;28;20031;-41
2023/09/26 05:53:34;;;;;;;14.68;8.88;;;15.60;99.90;;;;;;5071251;28;20047;-40
2023/09/26 05:56:00;;;;;;;12.95;7.70;;;15.50;99.90;;;;;;5070077;28;20043;-39
2023/09/26 05:58:26;;;;;;;16.00;7.93;;;15.50;99.90;;;;;;5072753;28;20138;-39
2023/09/26 06:00:53;;;;;;;12.65;8.82;;;15.50;99.90;;;;;;5071169;28;20103;-39
2023/09/26 06:03:19;;;;;;;12.40;8.75;;;15.40;99.90;;;;;;5071920;28;20536;-44
2023/09/26 06:05:45;;;;;;;12.65;8.85;;;15.50;99.90;;;;;;5069749;28;20044;-42
2023/09/26 06:08:11;;;;;;;13.45;8.57;;;15.60;99.90;;;;;;5068323;28;20021;-45
2023/09/26 06:10:36;;;;;;;15.23;8.23;;;15.60;99.90;;;;;;5071794;28;20031;-42
2023/09/26 06:13:02;;;;;;;12.02;8.48;;;15.70;99.90;;;;;;5071615;28;20028;-42
2023/09/26 06:15:28;;;;;;;18.58;8.80;;;15.70;99.90;;;;;;5071613;28;20028;-39
2023/09/26 06:18:00;;;;;;;14.25;8.98;;;15.60;99.90;;;;;;5072525;28;20397;-39
2023/09/26 06:20:29;;;;;;;12.00;8.57;;;15.60;99.90;;;;;;5067929;28;20028;-36
2023/09/26 06:22:56;;;;;;;12.07;8.25;;;15.60;99.90;;;;;;5061281;28;20032;-39
2023/09/26 06:25:24;;;;;;;16.35;8.70;;;15.60;99.90;;;;;;5070708;28;21992;-41
2023/09/26 06:27:51;;;;;;;13.80;8.68;;;15.60;99.90;;;;;;5081868;28;20526;-39
2023/09/26 06:30:17;;;;;;;7.85;5.68;;;15.80;99.90;;;;;;5061114;28;20061;-43
2023/09/26 06:32:43;;;;;;;16.67;8.63;;;15.80;99.90;;;;;;5068396;28;20106;-41
2023/09/26 06:35:10;;;;;;;13.63;9.20;;;15.80;99.90;;;;;;5067511;28;20025;-39
2023/09/26 06:37:36;;;;;;;15.38;8.23;;;15.80;99.90;;;;;;5070096;28;20059;-39
2023/09/26 06:40:04;;;;;;;18.15;9.18;;;15.90;99.90;;;;;;5059634;28;20421;-40
2023/09/26 06:42:33;;;;;;;32.38;14.38;;;16.00;99.90;;;;;;5090625;28;20401;-39
2023/09/26 06:44:59;;;;;;;16.30;9.85;;;16.00;99.90;;;;;;5075505;28;20054;-43
2023/09/26 06:47:26;;;;;;;14.98;8.70;;;16.10;99.90;;;;;;5069518;28;20115;-43
2023/09/26 06:49:56;;;;;;;13.68;9.50;;;16.10;99.90;;;;;;5072959;28;20021;-39
2023/09/26 06:52:24;;;;;;;10.60;8.20;;;16.20;99.90;;;;;;5067654;28;20057;-44
2023/09/26 06:54:50;;;;;;;19.02;9.70;;;16.20;99.90;;;;;;5073893;28;20017;-40
2023/09/26 06:57:20;;;;;;;14.35;8.85;;;16.30;99.90;;;;;;5074418;28;20489;-41
2023/09/26 06:59:49;;;;;;;11.82;8.50;;;16.30;99.90;;;;;;5076661;28;20020;-40
2023/09/26 07:02:15;;;;;;;14.25;8.60;;;16.30;99.90;;;;;;5075032;28;20060;-39
2023/09/26 07:04:41;;;;;;;14.02;8.32;;;16.30;99.90;;;;;;5072628;28;20044;-39
2023/09/26 07:07:07;;;;;;;15.20;8.25;;;16.20;99.90;;;;;;5072267;28;20085;-39
2023/09/26 07:09:32;;;;;;;16.27;9.02;;;16.30;99.90;;;;;;5074480;28;20032;-43
2023/09/26 07:11:58;;;;;;;11.52;9.32;;;16.30;99.90;;;;;;5070401;28;20045;-43
2023/09/26 07:14:24;;;;;;;12.48;8.57;;;16.30;99.90;;;;;;5068072;28;20021;-40
2023/09/26 07:16:51;;;;;;;19.60;9.15;;;16.40;99.90;;;;;;5073987;28;20051;-39
2023/09/26 07:19:17;;;;;;;13.70;8.90;;;16.40;99.90;;;;;;5070397;28;20032;-40
2023/09/26 07:21:42;;;;;;;16.70;9.07;;;16.40;99.90;;;;;;5071729;28;20040;-40
2023/09/26 07:24:09;;;;;;;10.27;8.30;;;16.40;99.90;;;;;;5072971;28;20028;-43
2023/09/26 07:26:34;;;;;;;15.68;8.80;;;16.50;99.90;;;;;;5072200;28;20488;-44
2023/09/26 07:29:00;;;;;;;12.90;8.05;;;16.70;99.90;;;;;;5073957;28;20105;-40
2023/09/26 07:31:30;;;;;;;16.70;9.60;;;16.70;99.90;;;;;;5071884;28;20020;-42
2023/09/26 07:33:55;;;;;;;12.93;8.88;;;16.70;99.90;;;;;;5071648;28;20021;-41
2023/09/26 07:36:21;;;;;;;14.63;8.48;;;16.60;99.90;;;;;;5069719;28;20481;-40
2023/09/26 07:38:47;;;;;;;10.55;6.88;;;16.60;99.90;;;;;;5073387;28;20416;-41
2023/09/26 07:41:12;;;;;;;13.07;7.90;;;16.60;99.90;;;;;;5072792;28;20024;-39
2023/09/26 07:43:38;;;;;;;13.25;8.32;;;16.60;99.90;;;;;;5071303;28;20104;-39
2023/09/26 07:46:05;;;;;;;14.57;9.10;;;16.70;99.90;;;;;;5075045;28;20036;-40
2023/09/26 07:48:32;;;;;;;16.58;8.25;;;16.70;99.90;;;;;;5069802;28;20033;-39
2023/09/26 07:50:58;;;;;;;12.07;8.25;;;16.80;99.90;;;;;;5071783;28;20393;-41
2023/09/26 07:53:24;;;;;;;10.77;8.02;;;16.90;99.90;;;;;;5072770;28;20025;-39
2023/09/26 07:55:49;;;;;;;11.57;7.63;;;16.80;99.90;;;;;;5072532;28;20504;-40
2023/09/26 07:58:16;;;;;;;12.07;8.18;;;16.90;99.90;;;;;;5068203;28;20040;-41
2023/09/26 08:00:42;;;;;;;11.73;8.20;;;16.90;99.90;;;;;;5072530;28;20016;-40
2023/09/26 08:03:08;;;;;;;12.35;7.15;;;17.00;99.90;;;;;;5071661;28;20119;-39
2023/09/26 08:05:33;;;;;;;13.02;8.63;;;17.10;99.90;;;;;;5072151;28;20123;-41
2023/09/26 08:08:03;;;;;;;12.32;8.48;;;17.20;99.90;;;;;;5074283;28;20058;-43
2023/09/26 08:10:29;;;;;;;11.50;7.55;;;17.30;99.90;;;;;;5074289;28;20078;-44
2023/09/26 08:12:54;;;;;;;16.98;8.85;;;17.40;99.90;;;;;;5073098;28;20031;-43
2023/09/26 08:15:20;;;;;;;13.10;8.05;;;17.40;99.90;;;;;;5071238;28;20029;-42
2023/09/26 08:17:45;;;;;;;12.02;8.07;;;17.50;99.90;;;;;;5073716;28;20020;-41
2023/09/26 08:20:11;;;;;;;9.70;6.93;;;17.50;99.90;;;;;;5066439;28;20036;-40
2023/09/26 08:22:38;;;;;;;10.02;7.47;;;17.60;99.90;;;;;;5070643;28;20020;-43
2023/09/26 08:25:04;;;;;;;13.85;7.70;;;17.60;99.90;;;;;;5070635;28;20049;-38
2023/09/26 08:27:31;;;;;;;12.38;7.68;;;17.60;99.90;;;;;;5062773;28;20392;-40
2023/09/26 08:29:59;;;;;;;17.85;8.85;;;17.70;99.90;;;;;;5069037;28;20029;-41
2023/09/26 08:32:25;;;;;;;;;;;17.70;99.90;;;;;;5067149;28;20025;-39
2023/09/26 08:34:50;;;;;;;15.18;7.70;;;17.90;99.90;;;;;;5066152;28;20391;-40
2023/09/26 08:37:16;;;;;;;10.73;6.50;;;18.00;99.90;;;;;;5070846;28;20028;-40
2023/09/26 08:39:43;;;;;;;9.93;7.07;;;18.10;99.90;;;;;;5070694;28;20024;-42
2023/09/26 08:42:17;;;;;;;10.60;7.25;;;18.10;99.90;;;;;;5065451;28;20443;-40
2023/09/26 08:44:43;;;;;;;15.07;7.20;;;18.20;99.90;;;;;;5065298;28;20491;-39
2023/09/26 08:47:09;;;;;;;18.40;6.80;;;18.30;99.90;;;;;;5067121;28;20115;-39
2023/09/26 08:49:39;;;;;;;10.23;6.70;;;18.40;99.90;;;;;;5068280;28;20108;-40
2023/09/26 08:52:05;;;;;;;11.93;6.90;;;18.40;99.90;;;;;;5069204;28;20070;-44
2023/09/26 08:54:30;;;;;;;17.33;6.63;;;18.50;99.90;;;;;;5072393;28;20024;-39
2023/09/26 08:56:57;;;;;;;11.95;6.90;;;18.60;99.90;;;;;;5071923;28;20028;-40
2023/09/26 08:59:23;;;;;;;8.65;6.07;;;18.60;99.90;;;;;;5069801;28;20033;-41
2023/09/26 09:01:50;;;;;;;10.35;6.72;;;18.70;99.90;;;;;;5066852;28;20043;-43
2023/09/26 09:04:18;;;;;;;9.73;6.68;;;18.80;99.90;;;;;;5068682;28;20432;-39
2023/09/26 09:06:44;;;;;;;;;;;18.70;99.90;;;;;;5073768;28;20056;-40
2023/09/26 09:09:12;;;;;;;11.13;6.30;;;18.80;99.90;;;;;;5069739;28;19927;-43
2023/09/26 09:11:38;;;;;;;10.60;6.63;;;18.90;99.90;;;;;;5070441;28;20111;-41
2023/09/26 09:14:06;;;;;;;11.02;6.72;;;19.10;99.90;;;;;;5073460;28;20113;-41
2023/09/26 09:16:32;;;;;;;9.48;6.25;;;19.10;99.90;;;;;;5070768;28;20161;-40
2023/09/26 09:18:58;;;;;;;8.07;6.20;;;19.20;99.90;;;;;;5070092;28;20105;-51
2023/09/26 09:21:25;;;;;;;10.02;5.50;;;19.20;99.90;;;;;;5069406;28;20460;-52
2023/09/26 09:23:52;;;;;;;8.00;5.63;;;19.40;99.90;;;;;;5069618;28;20106;-52
2023/09/26 09:26:19;;;;;;;11.23;6.15;;;19.40;99.90;;;;;;5072438;28;20036;-53
2023/09/26 09:28:46;;;;;;;;;;;19.40;99.90;;;;;;5072650;28;20039;-54
2023/09/26 09:31:18;;;;;;;10.35;6.05;;;19.40;99.90;;;;;;5073233;28;19908;-53
2023/09/26 09:33:49;;;;;;;8.95;6.57;;;19.40;99.90;;;;;;5059481;28;20095;-54
2023/09/26 09:36:15;;;;;;;12.02;5.70;;;19.40;99.90;;;;;;5065642;28;20029;-53
2023/09/26 09:38:41;;;;;;;10.25;6.10;;;19.50;99.90;;;;;;5063644;28;20496;-53
2023/09/26 09:41:08;;;;;;;6.80;5.18;;;19.50;99.90;;;;;;5072999;28;20116;-53
2023/09/26 09:43:34;;;;;;;9.32;5.85;;;19.50;99.90;;;;;;5072725;28;20029;-52
2023/09/26 09:46:08;;;;;;;7.68;5.95;;;19.50;99.90;;;;;;5073148;28;20032;-50
2023/09/26 09:48:44;;;;;;;14.13;6.60;;;19.50;99.90;;;;;;5072994;28;20053;-52
2023/09/26 09:51:16;;;;;;;12.23;6.63;;;19.50;99.90;;;;;;5073190;28;20023;-53
2023/09/26 09:53:52;;;;;;;10.32;6.88;;;19.70;99.90;;;;;;5061275;28;20118;-52
2023/09/26 09:56:19;;;;;;;11.20;6.20;;;19.70;99.90;;;;;;5070643;28;20056;-50
2023/09/26 09:58:50;;;;;;;8.60;6.15;;;19.60;99.90;;;;;;5072069;28;20374;-52
2023/09/26 10:01:20;;;;;;;10.20;6.40;;;19.60;99.90;;;;;;5078799;28;20051;-52
2023/09/26 10:03:50;;;;;;;8.15;5.80;;;19.60;99.90;;;;;;5092975;28;20028;-51
2023/09/26 10:06:16;;;;;;;12.48;6.65;;;19.60;99.90;;;;;;5092768;28;20113;-50
2023/09/26 10:08:43;;;;;;;11.20;7.00;;;19.60;99.90;;;;;;5092948;28;20023;-51
2023/09/26 10:13:56;;;;;;;8.75;6.35;;;19.80;99.90;;;;;;5059023;28;20078;-52
2023/09/26 10:16:24;;;;;;;9.30;6.75;;;20.00;99.90;;;;;;5071643;28;20029;-48
2023/09/26 10:18:49;;;;;;;7.93;5.55;;;20.10;99.90;;;;;;5072590;28;20031;-51
2023/09/26 10:21:21;;;;;;;7.65;5.63;;;20.10;99.90;;;;;;5072872;28;20116;-51
2023/09/26 10:24:08;;;;;;;9.60;5.25;;;20.10;99.90;;;;;;5072355;28;20037;-51
2023/09/26 10:26:37;;;;;;;8.50;5.90;;;20.10;99.90;;;;;;5065761;28;20032;-52
2023/09/26 10:29:10;;;;;;;8.15;5.53;;;20.30;99.90;;;;;;5071664;28;20266;-53
2023/09/26 10:31:41;;;;;;;9.05;5.70;;;20.40;99.90;;;;;;5072618;28;20040;-50
2023/09/26 10:34:07;;;;;;;9.02;5.70;;;20.60;99.90;;;;;;5071863;28;20032;-45
2023/09/26 10:36:37;;;;;;;6.22;5.15;;;20.70;99.90;;;;;;5066613;28;20035;-52
2023/09/26 10:39:05;;;;;;;10.45;5.47;;;20.80;99.90;;;;;;5070570;28;20033;-49
2023/09/26 10:41:31;;;;;;;9.48;5.78;;;20.80;99.90;;;;;;5071792;28;20032;-52
2023/09/26 10:43:56;;;;;;;7.63;5.47;;;20.90;99.90;;;;;;5070738;28;20028;-53
2023/09/26 10:46:22;;;;;;;9.35;5.60;;;21.00;99.90;;;;;;5068139;28;20032;-52
2023/09/26 10:48:48;;;;;;;5.68;4.63;;;21.10;99.90;;;;;;5069804;28;20044;-52
2023/09/26 10:51:16;;;;;;;8.02;5.25;;;21.20;99.90;;;;;;5065319;28;20385;-53
2023/09/26 10:53:46;;;;;;;5.13;4.40;;;21.40;99.90;;;;;;5067585;28;20025;-53
2023/09/26 10:56:13;;;;;;;7.22;4.40;;;21.40;99.90;;;;;;5068074;28;20025;-44
2023/09/26 10:58:52;;;;;;;9.57;4.32;;;21.60;99.90;;;;;;5066996;28;20493;-53
2023/09/26 11:01:18;;;;;;;5.57;4.80;;;21.80;99.90;;;;;;5068392;28;20028;-50
2023/09/26 11:03:44;;;;;;;9.50;4.45;;;22.00;99.90;;;;;;5066075;28;20039;-50
2023/09/26 11:06:11;;;;;;;7.53;5.40;;;22.00;99.90;;;;;;5061699;28;20489;-49
2023/09/26 11:08:37;;;;;;;6.95;4.90;;;22.10;99.90;;;;;;5059963;28;20491;-53
2023/09/26 11:11:03;;;;;;;11.07;5.13;;;22.10;99.90;;;;;;5071544;28;20048;-53
2023/09/26 11:13:29;;;;;;;7.03;4.50;;;22.10;99.90;;;;;;5067661;28;20109;-51
2023/09/26 11:15:55;;;;;;;7.20;4.97;;;22.20;99.90;;;;;;5070308;28;20029;-51
2023/09/26 11:18:21;;;;;;;7.57;3.92;;;22.40;99.90;;;;;;5068787;28;20503;-53
2023/09/26 11:20:47;;;;;;;5.75;4.05;;;22.40;99.90;;;;;;5067525;28;20378;-51
2023/09/26 11:23:39;;;;;;;5.47;3.60;;;22.50;99.90;;;;;;5069540;28;20024;-45
2023/09/26 11:26:06;;;;;;;5.47;4.05;;;22.60;99.90;;;;;;5070865;28;20029;-52
2023/09/26 11:28:32;;;;;;;4.93;4.43;;;22.80;99.90;;;;;;5074114;28;20074;-49
2023/09/26 11:30:59;;;;;;;5.93;4.22;;;23.10;99.90;;;;;;5070014;28;20104;-51
2023/09/26 11:33:25;;;;;;;7.72;4.00;;;23.30;99.90;;;;;;5074857;28;20025;-50
2023/09/26 11:35:51;;;;;;;8.25;3.90;;;23.40;99.90;;;;;;5059265;28;20032;-50
2023/09/26 11:38:17;;;;;;;4.85;4.20;;;23.40;99.90;;;;;;5064569;28;20052;-53
2023/09/26 11:40:44;;;;;;;5.63;3.88;;;23.40;99.90;;;;;;5072232;28;20511;-48
2023/09/26 11:43:10;;;;;;;6.85;4.68;;;23.40;99.90;;;;;;5074448;28;20029;-52
2023/09/26 11:45:37;;;;;;;8.35;4.82;;;23.40;99.90;;;;;;5074241;28;20078;-53
2023/09/26 11:48:05;;;;;;;5.47;4.00;;;23.30;99.90;;;;;;5070650;28;20456;-50
2023/09/26 11:50:31;;;;;;;5.65;3.42;;;23.30;99.90;;;;;;5071417;28;20017;-52
2023/09/26 11:53:01;;;;;;;9.90;4.30;;;23.30;99.90;;;;;;5060693;28;20437;-53
2023/09/26 11:55:29;;;;;;;4.72;3.55;;;23.20;99.90;;;;;;5074139;28;20103;-51
2023/09/26 11:57:55;;;;;;;5.95;3.25;;;23.40;99.90;;;;;;5070231;28;20021;-48
2023/09/26 12:00:21;;;;;;;6.45;3.50;;;23.60;99.90;;;;;;5071625;28;20420;-52
2023/09/26 12:02:50;;;;;;;5.00;3.05;;;24.00;99.90;;;;;;5074954;28;20485;-50
2023/09/26 12:05:20;;;;;;;3.60;2.22;;;24.00;99.90;;;;;;5070853;28;20041;-52
2023/09/26 12:07:47;;;;;;;6.00;2.80;;;24.00;99.90;;;;;;5073914;28;20032;-53
2023/09/26 12:10:13;;;;;;;6.38;3.42;;;24.00;99.90;;;;;;5071600;28;20028;-53
2023/09/26 12:12:39;;;;;;;6.63;3.25;;;23.80;99.90;;;;;;5072024;28;20017;-51
2023/09/26 12:15:34;;;;;;;3.17;2.85;;;23.80;99.90;;;;;;5071760;28;20468;-52
2023/09/26 12:18:00;;;;;;;5.22;3.15;;;24.00;99.90;;;;;;5066883;28;20029;-49
2023/09/26 12:20:26;;;;;;;26.65;3.05;;;24.00;99.90;;;;;;5071858;28;20044;-50
2023/09/26 12:22:53;;;;;;;4.63;2.50;;;24.00;99.90;;;;;;5059643;28;20012;-39
2023/09/26 12:25:19;;;;;;;;;;;23.90;99.90;;;;;;5064835;28;20037;-39
2023/09/26 12:27:47;;;;;;;3.65;2.60;;;23.70;99.90;;;;;;5072625;28;19905;-40
2023/09/26 12:30:13;;;;;;;3.40;2.25;;;23.70;99.90;;;;;;5073883;28;20025;-39
2023/09/26 12:32:40;;;;;;;5.50;2.78;;;23.60;99.90;;;;;;5073324;28;20020;-41
2023/09/26 12:35:07;;;;;;;3.63;2.38;;;23.50;99.90;;;;;;5074609;28;20040;-40
2023/09/26 12:37:32;;;;;;;4.00;2.60;;;23.50;99.90;;;;;;5073118;28;20461;-40
2023/09/26 12:39:58;;;;;;;5.57;2.63;;;23.40;99.90;;;;;;5074250;28;20074;-41
2023/09/26 12:42:25;;;;;;;4.72;2.40;;;23.30;99.90;;;;;;5073172;28;20096;-40
2023/09/26 12:44:51;;;;;;;4.05;2.28;;;23.20;99.90;;;;;;5054355;28;20518;-39
2023/09/26 12:47:16;;;;;;;4.97;2.83;;;23.10;99.90;;;;;;5056513;28;20032;-39
2023/09/26 12:49:46;;;;;;;6.15;2.45;;;22.90;99.90;;;;;;5069871;28;20152;-40